Time;durP1;ratioP1;P1;durP2;ratioP2;P2;SDS_P1;SDS_P2;PMS_P1;PMS_P2;Temp;Humidity;BMP_temperature;BMP_pressure;BME280_temperature;BME280_humidity;BME280_pressure;Samples;Min_cycle;Max_cycle;Signal;HPM_P1;HPM_P2
2021/12/13 00:00:54;;;;;;;1.10;0.60;;;;;;;12.85;32.46;97441.75;5034857;28;20029;-29
2021/12/13 00:03:24;;;;;;;1.05;0.52;;;;;;;12.88;32.92;97451.78;5033743;28;20025;-29
2021/12/13 00:06:07;;;;;;;1.73;0.80;;;;;;;12.89;32.64;97453.31;5034511;28;20056;-29
2021/12/13 00:08:34;;;;;;;;;;;;;;;12.92;32.74;97449.00;5033966;28;20609;-29
2021/12/13 00:11:08;;;;;;;0.60;0.60;;;;;;;12.90;32.32;97446.69;5066334;28;19909;-29
2021/12/13 00:13:53;;;;;;;1.30;0.68;;;;;;;12.87;32.79;97441.28;5034838;28;20045;-29
2021/12/13 00:16:42;;;;;;;1.05;0.73;;;;;;;12.86;32.87;97447.91;5034448;28;20091;-29
2021/12/13 00:19:18;;;;;;;1.48;0.50;;;;;;;12.93;32.41;97436.91;5034151;28;20435;-30
2021/12/13 00:21:47;;;;;;;1.13;0.70;;;;;;;12.94;32.77;97446.63;5033956;28;20040;-29
2021/12/13 00:24:32;;;;;;;0.73;0.52;;;;;;;12.82;32.58;97441.78;5034039;28;20035;-29
2021/12/13 00:27:20;;;;;;;0.98;0.60;;;;;;;12.88;32.56;97440.88;5033701;28;20451;-29
2021/12/13 00:29:55;;;;;;;0.95;0.60;;;;;;;12.95;32.54;97448.16;5033482;28;20116;-29
2021/12/13 00:32:50;;;;;;;0.93;0.60;;;;;;;12.93;32.61;97447.81;5033938;28;20018;-29
2021/12/13 00:35:33;;;;;;;1.02;0.50;;;;;;;12.82;32.30;97448.00;5034020;28;20033;-29
2021/12/13 00:38:03;;;;;;;0.98;0.60;;;;;;;12.91;32.43;97450.19;5034172;28;20418;-29
2021/12/13 00:40:33;;;;;;;1.13;0.50;;;;;;;12.94;32.25;97441.19;5033900;28;20083;-29
2021/12/13 00:43:07;;;;;;;1.23;0.50;;;;;;;12.87;32.21;97446.75;5034114;28;20455;-29
2021/12/13 00:45:36;;;;;;;0.80;0.50;;;;;;;12.93;32.23;97458.69;5033648;28;20425;-29
2021/12/13 00:48:05;;;;;;;0.90;0.70;;;;;;;12.93;32.24;97445.84;5034020;28;20418;-29
2021/12/13 00:50:59;;;;;;;0.70;0.60;;;;;;;12.80;32.24;97452.31;5033757;28;20032;-29
2021/12/13 00:53:25;;;;;;;1.33;0.60;;;;;;;12.90;32.05;97452.13;5033311;28;20035;-29
2021/12/13 00:55:52;;;;;;;1.25;0.60;;;;;;;12.91;32.29;97455.63;5033578;28;20043;-29
2021/12/13 00:58:22;;;;;;;1.13;0.93;;;;;;;12.89;32.02;97449.81;5033367;28;20072;-28
2021/12/13 01:00:50;;;;;;;1.40;0.60;;;;;;;12.79;31.97;97458.94;5033935;28;20075;-29
2021/12/13 01:03:25;;;;;;;1.52;0.50;;;;;;;12.88;32.58;97461.91;5032261;28;20030;-29
2021/12/13 01:06:11;;;;;;;0.70;0.50;;;;;;;12.90;32.02;97457.56;5033382;28;20025;-29
2021/12/13 01:09:18;;;;;;;1.10;0.50;;;;;;;12.93;31.71;97459.47;5032035;28;20037;-30
2021/12/13 01:11:44;;;;;;;0.77;0.45;;;;;;;12.90;31.99;97467.69;5031927;28;20021;-29
2021/12/13 01:14:27;;;;;;;0.63;0.45;;;;;;;12.85;31.53;97473.63;5032908;28;20037;-29
2021/12/13 01:17:08;;;;;;;;;;;;;;;12.91;32.42;97470.00;5033773;28;20103;-29
2021/12/13 01:22:34;;;;;;;0.63;0.50;;;;;;;12.92;32.07;97451.72;5033444;28;20025;-29
2021/12/13 01:25:39;;;;;;;1.10;0.60;;;;;;;12.93;31.73;97451.31;5033082;28;20091;-29
2021/12/13 01:28:09;;;;;;;0.93;0.47;;;;;;;12.90;31.73;97454.09;5033049;28;20128;-29
2021/12/13 01:30:38;;;;;;;1.35;0.70;;;;;;;12.93;32.05;97448.59;5032809;28;20025;-29
2021/12/13 01:33:08;;;;;;;0.70;0.60;;;;;;;12.95;31.53;97450.88;5032978;28;20068;-29
2021/12/13 01:35:38;;;;;;;0.95;0.50;;;;;;;12.90;31.78;97448.63;5033138;28;20029;-29
2021/12/13 01:38:13;;;;;;;0.80;0.60;;;;;;;12.90;31.63;97454.09;5033286;28;20118;-29
2021/12/13 01:40:42;;;;;;;1.65;0.60;;;;;;;12.93;31.63;97454.03;5032747;28;20033;-29
2021/12/13 01:43:13;;;;;;;0.57;0.45;;;;;;;13.01;31.42;97459.31;5032790;28;20040;-29
2021/12/13 01:45:44;;;;;;;0.75;0.52;;;;;;;12.94;31.81;97462.97;5032841;28;20029;-29
2021/12/13 01:48:33;;;;;;;1.05;0.60;;;;;;;12.94;31.54;97471.91;5032734;28;20426;-29
2021/12/13 01:51:06;;;;;;;1.13;0.50;;;;;;;12.93;32.09;97475.81;5032913;28;20485;-29
2021/12/13 01:53:37;;;;;;;0.77;0.60;;;;;;;12.94;31.92;97466.47;5032551;28;20387;-29
2021/12/13 01:56:22;;;;;;;1.30;0.70;;;;;;;12.87;31.40;97473.97;5032985;28;20025;-29
2021/12/13 01:58:49;;;;;;;1.15;0.52;;;;;;;12.95;31.90;97469.94;5032550;28;20129;-29
2021/12/13 02:01:21;;;;;;;0.70;0.40;;;;;;;12.91;31.55;97467.28;5032634;28;20030;-29
2021/12/13 02:03:55;;;;;;;1.27;0.50;;;;;;;13.00;32.01;97472.19;5032789;28;20029;-29
2021/12/13 02:06:52;;;;;;;1.02;0.60;;;;;;;12.97;31.93;97464.84;5033067;28;20079;-29
2021/12/13 02:09:25;;;;;;;0.70;0.50;;;;;;;12.91;31.90;97470.00;5031504;28;20112;-29
2021/12/13 02:11:57;;;;;;;0.60;0.43;;;;;;;12.94;31.85;97462.97;5032921;28;20026;-29
2021/12/13 02:14:30;;;;;;;0.60;0.50;;;;;;;12.98;31.96;97460.19;5032051;28;20044;-29
2021/12/13 02:17:18;;;;;;;0.77;0.50;;;;;;;12.98;32.18;97466.41;5028491;28;20030;-29
2021/12/13 02:19:53;;;;;;;0.63;0.40;;;;;;;13.03;32.21;97446.06;5032674;28;20034;-28
2021/12/13 02:22:48;;;;;;;0.77;0.43;;;;;;;12.97;31.57;97448.53;5032813;28;20026;-29
2021/12/13 02:25:14;;;;;;;0.73;0.50;;;;;;;12.98;32.19;97458.22;5032083;28;20491;-29
2021/12/13 02:27:45;;;;;;;1.20;0.50;;;;;;;12.97;31.77;97464.84;5035881;28;20037;-29
2021/12/13 02:30:40;;;;;;;0.85;0.40;;;;;;;12.91;31.96;97456.38;5036769;28;20124;-29
2021/12/13 02:33:14;;;;;;;0.80;0.40;;;;;;;12.93;32.10;97454.03;5031787;28;20056;-28
2021/12/13 02:35:45;;;;;;;0.68;0.40;;;;;;;12.92;31.77;97468.81;5036977;28;20061;-29
2021/12/13 02:38:13;;;;;;;1.02;0.40;;;;;;;12.96;31.90;97466.03;5036886;28;20025;-29
2021/12/13 02:40:40;;;;;;;0.90;0.50;;;;;;;12.99;31.87;97470.63;5036585;28;20368;-29
2021/12/13 02:43:09;;;;;;;0.90;0.45;;;;;;;12.99;31.83;97467.91;5036394;28;20021;-29
2021/12/13 02:45:43;;;;;;;0.68;0.45;;;;;;;12.98;32.13;97481.97;5036411;28;20037;-29
2021/12/13 02:48:33;;;;;;;0.82;0.50;;;;;;;12.92;31.91;97479.72;5036391;28;20025;-29
2021/12/13 02:51:17;;;;;;;1.00;0.40;;;;;;;12.94;32.05;97468.41;5036664;28;20448;-29
2021/12/13 02:54:00;;;;;;;0.70;0.50;;;;;;;12.94;32.43;97474.63;5036293;28;20164;-29
2021/12/13 02:56:30;;;;;;;0.68;0.50;;;;;;;12.92;32.29;97468.81;5036290;28;20387;-29
2021/12/13 02:58:57;;;;;;;1.75;0.77;;;;;;;12.93;32.34;97473.09;5034539;28;20415;-29
2021/12/13 03:01:38;;;;;;;1.23;0.70;;;;;;;12.86;31.96;97475.16;5036150;28;20034;-29
2021/12/13 03:04:09;;;;;;;1.05;0.55;;;;;;;12.86;32.36;97477.88;5035987;28;20136;-29
2021/12/13 03:06:42;;;;;;;1.25;0.70;;;;;;;12.87;31.98;97472.00;5036016;28;20029;-29
2021/12/13 03:09:13;;;;;;;1.75;0.70;;;;;;;12.83;31.51;97471.31;5035955;28;20036;-29
2021/12/13 03:11:45;;;;;;;1.00;0.60;;;;;;;12.85;31.82;97474.41;5035983;28;20021;-29
2021/12/13 03:14:28;;;;;;;1.30;0.60;;;;;;;12.83;32.09;97476.78;5036053;28;20031;-28
2021/12/13 03:17:08;;;;;;;2.40;0.70;;;;;;;12.92;31.94;97489.84;5035884;28;20029;-29
2021/12/13 03:19:42;;;;;;;1.00;0.70;;;;;;;12.93;31.91;97483.22;5036077;28;20376;-29
2021/12/13 03:22:34;;;;;;;1.20;0.70;;;;;;;12.90;31.40;97481.31;5035580;28;20022;-28
2021/12/13 03:25:14;;;;;;;1.85;0.70;;;;;;;12.92;31.54;97485.16;5020224;28;20124;-29
2021/12/13 03:28:13;;;;;;;1.05;0.70;;;;;;;12.93;31.36;97469.59;5035782;28;20061;-29
2021/12/13 03:31:03;;;;;;;0.93;0.60;;;;;;;12.93;31.88;97464.16;5035835;28;20014;-28
2021/12/13 03:33:34;;;;;;;0.98;0.60;;;;;;;12.89;31.84;97453.31;5035940;28;20021;-28
2021/12/13 03:36:06;;;;;;;1.10;0.68;;;;;;;12.89;31.52;97458.75;5035611;28;20033;-28
2021/12/13 03:38:39;;;;;;;1.05;0.50;;;;;;;12.88;32.13;97464.63;5035522;28;20065;-29
2021/12/13 03:41:11;;;;;;;1.25;0.88;;;;;;;12.86;31.76;97454.13;5035344;28;20040;-29
2021/12/13 03:43:42;;;;;;;1.08;0.60;;;;;;;12.94;31.95;97460.25;5035443;28;20019;-29
2021/12/13 03:46:10;;;;;;;1.13;0.70;;;;;;;12.92;32.62;97457.16;5035496;28;20120;-29
2021/12/13 03:48:37;;;;;;;1.73;0.65;;;;;;;12.91;32.16;97467.28;5035269;28;20396;-29
2021/12/13 03:51:10;;;;;;;1.30;0.70;;;;;;;12.93;32.00;97475.03;5035542;28;20029;-29
2021/12/13 03:53:35;;;;;;;1.42;0.60;;;;;;;12.89;32.46;97468.88;5035029;28;20032;-29
2021/12/13 03:56:12;;;;;;;0.88;0.50;;;;;;;12.90;32.43;97473.91;5034118;28;20029;-29
2021/12/13 03:58:44;;;;;;;1.10;0.60;;;;;;;12.92;31.99;97478.94;5035239;28;20050;-29
2021/12/13 04:01:13;;;;;;;0.90;0.50;;;;;;;12.85;32.60;97468.97;5035022;28;20554;-29
2021/12/13 04:03:41;;;;;;;0.70;0.50;;;;;;;12.91;31.96;97467.28;5035046;28;20024;-29
2021/12/13 04:06:06;;;;;;;1.10;0.70;;;;;;;12.94;32.49;97465.69;5035634;28;20375;-29
2021/12/13 04:08:34;;;;;;;1.40;0.55;;;;;;;12.91;32.08;97456.38;5034873;28;20026;-29
2021/12/13 04:11:09;;;;;;;1.08;0.60;;;;;;;12.91;32.46;97463.78;5034944;28;20029;-28
2021/12/13 04:13:43;;;;;;;0.82;0.52;;;;;;;12.82;32.43;97447.25;5035225;28;20025;-29
2021/12/13 04:16:28;;;;;;;1.33;0.68;;;;;;;12.86;32.38;97448.69;5033454;28;20087;-29
2021/12/13 04:19:18;;;;;;;0.70;0.65;;;;;;;12.90;32.17;97451.34;5041405;28;20033;-29
2021/12/13 04:21:55;;;;;;;1.52;0.60;;;;;;;12.91;32.44;97452.91;5013624;28;20117;-29
2021/12/13 04:24:33;;;;;;;1.17;0.60;;;;;;;12.85;32.93;97451.84;5014784;28;20369;-29
2021/12/13 04:27:18;;;;;;;1.02;0.60;;;;;;;12.91;32.36;97452.91;5013681;28;20438;-29
2021/12/13 04:29:45;;;;;;;1.50;0.73;;;;;;;12.90;32.24;97451.34;5014937;28;20030;-28
2021/12/13 04:32:22;;;;;;;0.90;0.57;;;;;;;12.88;32.74;97454.50;5014931;28;20022;-28
2021/12/13 04:34:52;;;;;;;0.90;0.63;;;;;;;12.86;32.11;97448.69;5015117;28;20025;-28
2021/12/13 04:37:22;;;;;;;0.90;0.60;;;;;;;12.83;32.58;97459.66;5013270;28;20032;-28
2021/12/13 04:39:55;;;;;;;0.70;0.50;;;;;;;12.89;32.30;97458.75;5014868;28;20064;-29
2021/12/13 04:42:22;;;;;;;0.73;0.55;;;;;;;12.88;32.04;97462.66;5014659;28;20097;-29
2021/12/13 04:44:52;;;;;;;0.77;0.50;;;;;;;12.86;32.68;97469.69;5014624;28;20034;-28
2021/12/13 04:47:24;;;;;;;0.60;0.50;;;;;;;12.92;32.44;97465.31;5014443;28;20475;-28
2021/12/13 04:50:08;;;;;;;1.10;0.73;;;;;;;12.92;32.19;97468.06;5012749;28;20087;-28
2021/12/13 04:52:34;;;;;;;1.15;0.60;;;;;;;12.86;32.59;97465.03;5014455;28;20083;-29
2021/12/13 04:55:04;;;;;;;1.33;0.80;;;;;;;12.90;32.39;97473.13;5014160;28;20033;-28
2021/12/13 04:57:30;;;;;;;1.52;0.88;;;;;;;12.89;32.23;97477.81;5014122;28;20025;-28
2021/12/13 05:00:00;;;;;;;0.85;0.60;;;;;;;12.92;32.36;97462.59;5014117;28;20534;-28
2021/12/13 05:02:28;;;;;;;1.67;0.57;;;;;;;12.90;31.98;97464.97;5013933;28;20495;-28
2021/12/13 05:04:57;;;;;;;1.65;0.52;;;;;;;12.91;32.33;97471.97;5014101;28;20058;-29
2021/12/13 05:07:25;;;;;;;1.52;0.68;;;;;;;12.86;31.86;97467.75;5014067;28;20420;-28
2021/12/13 05:09:52;;;;;;;1.20;0.80;;;;;;;12.92;32.34;97468.06;5014211;28;20030;-28
2021/12/13 05:12:22;;;;;;;0.77;0.50;;;;;;;12.93;32.19;97480.47;5013907;28;20022;-28
2021/12/13 05:14:55;;;;;;;1.20;0.80;;;;;;;12.92;31.87;97487.13;5013963;28;20029;-28
2021/12/13 05:17:23;;;;;;;;;;;;;;;12.89;32.25;97498.81;5014444;28;20040;-28
2021/12/13 05:19:57;;;;;;;1.83;0.77;;;;;;;12.90;32.47;97498.41;5013945;28;20283;-29
2021/12/13 05:22:23;;;;;;;1.58;0.80;;;;;;;12.86;32.31;97502.38;5013792;28;20380;-29
2021/12/13 05:24:56;;;;;;;0.95;0.60;;;;;;;12.86;32.48;97499.66;5013936;28;20021;-29
2021/12/13 05:27:32;;;;;;;;;;;;;;;12.85;32.44;97501.63;5012853;28;20033;-28
2021/12/13 05:30:15;;;;;;;0.80;0.63;;;;;;;12.91;32.34;97507.34;5013900;28;19960;-28
2021/12/13 05:32:47;;;;;;;1.23;0.70;;;;;;;12.85;32.26;97503.59;5013404;28;20030;-29
2021/12/13 05:35:29;;;;;;;1.35;0.90;;;;;;;12.86;32.69;97507.81;5013771;28;20036;-28
2021/12/13 05:37:58;;;;;;;2.25;0.60;;;;;;;12.86;32.54;97505.09;5013628;28;20044;-28
2021/12/13 05:40:34;;;;;;;1.10;0.70;;;;;;;12.85;32.41;97507.06;5013554;28;20032;-28
2021/12/13 05:43:11;;;;;;;1.70;0.80;;;;;;;12.84;32.85;97505.53;5013986;28;20029;-28
2021/12/13 05:45:43;;;;;;;2.35;0.75;;;;;;;12.86;32.63;97513.25;5013654;28;20028;-28
2021/12/13 05:48:23;;;;;;;1.25;0.82;;;;;;;12.87;33.00;97512.84;5013581;28;20033;-28
2021/12/13 05:50:57;;;;;;;1.15;0.82;;;;;;;12.92;32.46;97506.16;5013477;28;20105;-28
2021/12/13 05:53:43;;;;;;;1.48;0.90;;;;;;;12.87;32.96;97512.06;5028485;28;20033;-28
2021/12/13 05:56:14;;;;;;;1.20;0.80;;;;;;;12.83;33.11;97512.16;5013458;28;20059;-28
2021/12/13 05:59:23;;;;;;;2.08;0.88;;;;;;;12.88;32.92;97517.13;5013397;28;20041;-28
2021/12/13 06:02:03;;;;;;;1.30;1.00;;;;;;;12.81;33.11;97522.69;5048200;28;20041;-28
2021/12/13 06:04:44;;;;;;;2.50;0.95;;;;;;;12.86;32.65;97514.03;5017697;28;20037;-28
2021/12/13 06:07:26;;;;;;;1.13;0.80;;;;;;;12.90;32.91;97513.97;5017298;28;20063;-28
2021/12/13 06:10:29;;;;;;;1.50;0.95;;;;;;;12.87;32.58;97506.63;5017564;28;20368;-28
2021/12/13 06:12:59;;;;;;;1.23;0.70;;;;;;;12.91;32.56;97510.06;5023839;28;20384;-29
2021/12/13 06:15:35;;;;;;;1.10;0.88;;;;;;;12.90;32.83;97508.53;5035413;28;20112;-29
2021/12/13 06:18:03;;;;;;;2.10;1.20;;;;;;;12.83;32.56;97514.88;5035265;28;20025;-29
2021/12/13 06:20:31;;;;;;;2.15;0.85;;;;;;;12.90;33.07;97519.44;5035226;28;20116;-29
2021/12/13 06:23:21;;;;;;;1.77;1.00;;;;;;;12.90;32.65;97516.69;5034871;28;20092;-29
2021/12/13 06:25:54;;;;;;;1.70;0.93;;;;;;;12.86;32.97;97524.91;5033802;28;20029;-30
2021/12/13 06:28:22;;;;;;;;;;;;;;;12.78;32.97;97514.56;5035407;28;20079;-29
2021/12/13 06:31:13;;;;;;;1.42;0.90;;;;;;;12.84;32.87;97510.22;5034981;28;19951;-29
2021/12/13 06:33:59;;;;;;;2.35;1.05;;;;;;;12.83;33.08;97514.13;5034889;28;20037;-29
2021/12/13 06:36:32;;;;;;;2.00;1.00;;;;;;;12.86;32.41;97515.97;5034650;28;20112;-29
2021/12/13 06:39:10;;;;;;;1.92;1.10;;;;;;;12.88;32.74;97510.91;5034989;28;20112;-29
2021/12/13 06:41:38;;;;;;;1.85;1.45;;;;;;;12.90;32.63;97514.75;5034546;28;20029;-29
2021/12/13 06:44:15;;;;;;;1.60;1.48;;;;;;;12.91;32.56;97510.06;5034917;28;20170;-29
2021/12/13 06:46:46;;;;;;;5.25;1.45;;;;;;;12.90;32.72;97505.81;5034837;28;20040;-29
2021/12/13 06:49:20;;;;;;;10.50;2.65;;;;;;;12.90;32.72;97522.16;5034832;28;20040;-29
2021/12/13 06:51:56;;;;;;;1.98;1.23;;;;;;;12.81;32.61;97519.97;5034872;28;20022;-29
2021/12/13 06:54:25;;;;;;;2.67;1.35;;;;;;;12.82;32.28;97512.56;5034753;28;20056;-28
2021/12/13 06:57:19;;;;;;;1.63;1.27;;;;;;;12.85;32.39;97517.97;5034730;28;20025;-29
2021/12/13 06:59:59;;;;;;;3.22;1.40;;;;;;;12.83;32.42;97522.28;5025162;28;20054;-29
2021/12/13 07:02:55;;;;;;;2.28;1.55;;;;;;;12.84;32.25;97521.09;5032740;28;20091;-29
2021/12/13 07:05:22;;;;;;;1.92;1.23;;;;;;;12.87;32.76;97523.75;5031954;28;20450;-29
2021/12/13 07:08:00;;;;;;;4.18;1.48;;;;;;;12.89;32.58;97518.66;5033689;28;20041;-29
2021/12/13 07:10:31;;;;;;;3.80;1.55;;;;;;;12.85;32.41;97509.03;5034065;28;20029;-29
2021/12/13 07:13:04;;;;;;;3.58;1.70;;;;;;;12.89;32.42;97513.22;5033628;28;20034;-29
2021/12/13 07:15:39;;;;;;;3.00;1.88;;;;;;;12.87;32.66;97521.00;5034208;28;20018;-29
2021/12/13 07:18:15;;;;;;;4.75;2.60;;;;;;;12.89;32.73;97512.44;5034250;28;20572;-29
2021/12/13 07:21:03;;;;;;;4.82;2.30;;;;;;;12.91;32.79;97520.97;5034321;28;20045;-29
2021/12/13 07:23:54;;;;;;;6.07;3.08;;;;;;;12.82;32.37;97524.22;5034015;28;20078;-29
2021/12/13 07:26:53;;;;;;;6.00;2.60;;;;;;;12.91;32.83;97534.56;5031645;28;20036;-29
2021/12/13 07:29:29;;;;;;;5.55;2.63;;;;;;;12.85;32.41;97538.97;5033924;28;20076;-29
2021/12/13 07:32:12;;;;;;;7.70;2.85;;;;;;;12.79;32.72;97541.38;5034142;28;20573;-29
2021/12/13 07:34:53;;;;;;;;;;;;;;;12.77;32.60;97540.25;5034481;28;20037;-29
2021/12/13 07:37:34;;;;;;;4.15;2.28;;;;;;;12.75;33.07;97543.38;5033760;28;19971;-29
2021/12/13 07:40:40;;;;;;;5.78;2.67;;;;;;;12.65;33.21;97529.94;5033516;28;20796;-29
2021/12/13 07:43:23;;;;;;;4.63;2.42;;;;;;;12.71;33.08;97533.75;4991763;28;20488;-29
2021/12/13 07:46:10;;;;;;;5.70;2.78;;;;;;;12.81;32.77;97528.13;4992046;28;20141;-29
2021/12/13 07:48:55;;;;;;;5.70;2.95;;;;;;;12.82;33.30;97528.91;4991599;28;20524;-29
2021/12/13 07:51:25;;;;;;;4.93;2.55;;;;;;;12.80;33.24;97525.81;4991541;28;20624;-29
2021/12/13 07:53:56;;;;;;;7.35;2.72;;;;;;;12.68;33.81;97524.47;4991922;28;20046;-29
2021/12/13 07:56:39;;;;;;;5.32;2.65;;;;;;;12.78;33.63;97531.69;4991913;28;20439;-29
2021/12/13 07:59:29;;;;;;;4.68;2.60;;;;;;;12.80;33.64;97548.38;4991541;28;20054;-29
2021/12/13 08:02:04;;;;;;;4.68;2.30;;;;;;;12.77;33.78;97553.88;4991717;28;20049;-29
2021/12/13 08:04:55;;;;;;;4.50;2.13;;;;;;;12.82;33.95;97545.25;4991694;28;20053;-29
2021/12/13 08:07:31;;;;;;;5.63;2.90;;;;;;;12.78;33.52;97549.97;4967501;28;20042;-29
2021/12/13 08:10:30;;;;;;;4.57;2.58;;;;;;;12.85;33.67;97544.41;4991533;28;20121;-29
2021/12/13 08:13:02;;;;;;;4.85;2.95;;;;;;;12.86;33.69;97546.69;4988445;28;20034;-29
2021/12/13 08:15:43;;;;;;;4.63;2.47;;;;;;;12.82;33.82;97547.97;4991548;28;20452;-29
2021/12/13 08:18:20;;;;;;;4.88;2.17;;;;;;;12.81;33.91;97546.41;5031805;28;20056;-29
2021/12/13 08:20:54;;;;;;;5.63;2.17;;;;;;;12.78;34.16;97545.28;5015823;28;20065;-29
2021/12/13 08:23:47;;;;;;;3.53;2.03;;;;;;;12.77;33.87;97535.56;5012655;28;20038;-29
2021/12/13 08:26:18;;;;;;;4.70;2.22;;;;;;;12.84;34.34;97545.59;5017645;28;20128;-29
2021/12/13 08:28:47;;;;;;;2.83;1.88;;;;;;;12.84;34.42;97551.81;5013123;28;20116;-29
2021/12/13 08:31:24;;;;;;;4.25;2.05;;;;;;;12.84;34.29;97548.31;5013010;28;20104;-29
2021/12/13 08:33:54;;;;;;;2.92;1.95;;;;;;;12.81;34.53;97552.63;5012983;28;20026;-29
2021/12/13 08:36:40;;;;;;;3.88;1.95;;;;;;;11.97;35.92;97558.13;5012345;28;20028;-28
2021/12/13 08:39:33;;;;;;;3.65;1.50;;;;;;;12.19;35.41;97567.53;5012563;28;20113;-28
2021/12/13 08:42:12;;;;;;;2.60;1.42;;;;;;;12.54;35.04;97566.25;5012438;28;20157;-28
2021/12/13 08:44:47;;;;;;;4.22;1.67;;;;;;;12.69;34.91;97568.78;5012113;28;20045;-28
2021/12/13 08:47:18;;;;;;;3.33;1.45;;;;;;;12.71;34.76;97561.75;5011539;28;20026;-28
2021/12/13 08:50:19;;;;;;;4.10;1.70;;;;;;;12.80;34.85;97558.50;5030386;28;20437;-28
2021/12/13 08:52:47;;;;;;;2.58;1.52;;;;;;;12.72;35.24;97554.34;5012159;28;20427;-28
2021/12/13 08:55:12;;;;;;;4.13;1.92;;;;;;;12.75;35.13;97554.28;5012182;28;20506;-28
2021/12/13 08:57:47;;;;;;;3.03;1.70;;;;;;;12.83;34.85;97546.78;5012081;28;20033;-28
2021/12/13 09:00:12;;;;;;;2.95;1.83;;;;;;;12.80;34.69;97542.16;5013524;28;20115;-28
2021/12/13 09:02:45;;;;;;;2.72;1.70;;;;;;;12.80;35.06;97558.50;5033740;28;20029;-28
2021/12/13 09:05:18;;;;;;;2.65;1.60;;;;;;;12.43;35.87;97564.88;5034192;28;20036;-28
2021/12/13 09:08:03;;;;;;;17.65;10.60;;;;;;;12.19;37.51;97574.94;5033015;28;20430;-28
2021/12/13 09:10:53;;;;;;;7.78;5.25;;;;;;;12.54;36.61;97570.94;5033243;28;20359;-28
2021/12/13 09:13:43;;;;;;;8.38;5.45;;;;;;;12.74;35.86;97565.56;5033749;28;20456;-28
2021/12/13 09:16:11;;;;;;;9.63;6.57;;;;;;;12.81;36.27;97570.91;5033798;28;20395;-28
2021/12/13 09:18:36;;;;;;;8.38;5.63;;;;;;;12.85;35.86;97560.75;5033782;28;20029;-28
2021/12/13 09:21:05;;;;;;;9.02;6.70;;;;;;;12.84;36.00;97568.16;5033879;28;20431;-28
2021/12/13 09:23:45;;;;;;;8.43;5.55;;;;;;;12.84;36.00;97559.97;5033551;28;20025;-28
2021/12/13 09:26:19;;;;;;;8.48;5.45;;;;;;;12.87;36.19;97574.69;5017096;28;20581;-28
2021/12/13 09:28:53;;;;;;;8.57;5.70;;;;;;;12.92;36.03;97561.41;5033695;28;20403;-28
2021/12/13 09:31:51;;;;;;;8.57;5.43;;;;;;;12.90;35.66;97560.25;5033434;28;20025;-28
2021/12/13 09:34:19;;;;;;;10.80;4.90;;;;;;;12.77;36.05;97570.19;5025410;28;20044;-28
2021/12/13 09:36:49;;;;;;;9.07;5.05;;;;;;;12.83;36.28;97557.66;5033174;28;20029;-28
2021/12/13 09:39:29;;;;;;;6.95;4.40;;;;;;;12.83;36.36;97552.22;5033596;28;20116;-28
2021/12/13 09:42:07;;;;;;;5.55;3.80;;;;;;;12.65;36.71;97540.84;5033344;28;20025;-28
2021/12/13 09:44:48;;;;;;;6.15;4.03;;;;;;;12.56;36.68;97533.19;5033593;28;20414;-28
2021/12/13 09:47:18;;;;;;;7.30;4.57;;;;;;;12.78;36.18;97539.06;5033658;28;20021;-28
2021/12/13 09:49:56;;;;;;;8.40;4.68;;;;;;;12.82;36.52;97532.41;5033229;28;20099;-28
2021/12/13 09:52:34;;;;;;;7.40;4.05;;;;;;;12.77;36.82;97537.53;5033138;28;20036;-28
2021/12/13 09:55:14;;;;;;;6.68;4.38;;;;;;;12.57;36.95;97529.28;5033385;28;20017;-28
2021/12/13 09:57:59;;;;;;;6.90;4.03;;;;;;;12.63;36.92;97532.31;5033244;28;20077;-28
2021/12/13 10:00:27;;;;;;;5.75;4.18;;;;;;;12.71;37.00;97533.75;5033255;28;20037;-28
2021/12/13 10:02:58;;;;;;;6.13;4.22;;;;;;;12.70;37.06;97526.78;5032966;28;20025;-28
2021/12/13 10:05:36;;;;;;;5.93;4.00;;;;;;;12.53;37.58;97523.13;5033038;28;20071;-28
2021/12/13 10:08:09;;;;;;;4.72;3.33;;;;;;;12.49;37.63;97530.56;5033130;28;20468;-28
2021/12/13 10:10:38;;;;;;;;;;;;;;;12.52;37.72;97537.91;5033732;28;20120;-28
2021/12/13 10:13:08;;;;;;;5.20;3.22;;;;;;;12.45;38.21;97538.03;5032960;28;19909;-28
2021/12/13 10:15:56;;;;;;;5.40;3.50;;;;;;;12.65;37.57;97525.28;5032890;28;20074;-28
2021/12/13 10:18:30;;;;;;;5.15;3.30;;;;;;;12.52;38.28;97527.03;5026387;28;20407;-28
2021/12/13 10:21:01;;;;;;;5.18;3.28;;;;;;;12.76;37.78;97522.38;5033252;28;20352;-28
2021/12/13 10:23:33;;;;;;;4.28;2.92;;;;;;;12.66;37.81;97531.50;5031504;28;20026;-28
2021/12/13 10:26:01;;;;;;;3.55;2.78;;;;;;;12.64;38.17;97522.97;5032999;28;20021;-28
2021/12/13 10:28:33;;;;;;;4.68;2.80;;;;;;;12.61;38.21;97521.09;5033015;28;20037;-28
2021/12/13 10:31:17;;;;;;;4.70;2.55;;;;;;;12.19;39.61;97521.31;5031620;28;20026;-28
2021/12/13 10:33:43;;;;;;;3.00;2.22;;;;;;;12.18;39.47;97510.84;5032812;28;20027;-28
2021/12/13 10:36:09;;;;;;;3.28;2.47;;;;;;;12.34;39.47;97511.00;5032755;28;20030;-28
2021/12/13 10:38:40;;;;;;;4.32;2.92;;;;;;;12.74;38.20;97505.69;5032881;28;20108;-28
2021/12/13 10:41:13;;;;;;;3.13;2.40;;;;;;;12.83;37.89;97520.31;5032002;28;20112;-28
2021/12/13 10:43:46;;;;;;;3.33;2.33;;;;;;;12.71;38.23;97529.09;5021881;28;20503;-28
2021/12/13 10:46:15;;;;;;;4.18;2.67;;;;;;;12.69;38.58;97519.78;5013043;28;20072;-28
2021/12/13 10:48:47;;;;;;;3.58;2.33;;;;;;;12.72;37.93;97532.56;5015784;28;20472;-28
2021/12/13 10:51:35;;;;;;;3.97;2.30;;;;;;;12.78;38.29;97522.75;5016608;28;20114;-28
2021/12/13 10:54:07;;;;;;;2.83;2.00;;;;;;;12.84;38.56;97521.09;5016330;28;20058;-28
2021/12/13 10:56:37;;;;;;;3.55;2.45;;;;;;;12.99;38.12;97510.72;5017021;28;20072;-28
2021/12/13 10:59:07;;;;;;;2.58;2.20;;;;;;;12.91;37.61;97499.97;5016254;28;20054;-28
2021/12/13 11:01:45;;;;;;;3.70;2.20;;;;;;;12.91;37.87;97501.91;5033101;28;20041;-28
2021/12/13 11:04:16;;;;;;;2.72;1.88;;;;;;;12.87;38.03;97498.47;5034992;28;20067;-28
2021/12/13 11:06:44;;;;;;;2.58;1.70;;;;;;;12.94;38.22;97501.84;5036174;28;20116;-28
2021/12/13 11:09:14;;;;;;;2.78;2.30;;;;;;;13.01;37.89;97495.50;5035799;28;20120;-28
2021/12/13 11:11:50;;;;;;;2.60;2.08;;;;;;;13.11;37.27;97497.25;5036177;28;20033;-28
2021/12/13 11:14:20;;;;;;;3.35;2.28;;;;;;;13.09;37.55;97498.88;5035881;28;20037;-28
2021/12/13 11:16:56;;;;;;;2.15;1.90;;;;;;;13.13;37.52;97496.84;5035882;28;20029;-28
2021/12/13 11:19:25;;;;;;;2.63;1.75;;;;;;;13.10;37.53;97490.31;5035827;28;20033;-28
2021/12/13 11:21:55;;;;;;;2.65;1.90;;;;;;;13.13;37.79;97489.44;5035626;28;20388;-28
2021/12/13 11:24:24;;;;;;;2.10;1.70;;;;;;;13.14;37.46;97477.41;5035868;28;20082;-28
2021/12/13 11:26:54;;;;;;;2.28;1.75;;;;;;;13.13;37.49;97486.72;5036028;28;20021;-28
2021/12/13 11:29:20;;;;;;;2.88;1.98;;;;;;;13.16;37.64;97487.88;5035518;28;20025;-28
2021/12/13 11:31:56;;;;;;;2.75;1.90;;;;;;;13.17;37.60;97489.41;5035702;28;20037;-28
2021/12/13 11:34:53;;;;;;;3.17;1.70;;;;;;;13.17;37.74;97490.19;5035724;28;20064;-28
2021/12/13 11:38:03;;;;;;;2.97;1.90;;;;;;;13.19;37.51;97495.22;5035377;28;20475;-28
2021/12/13 11:40:53;;;;;;;2.75;1.70;;;;;;;13.24;37.63;97494.72;5035449;28;20025;-28
2021/12/13 11:43:37;;;;;;;2.85;1.73;;;;;;;13.21;37.74;97485.44;5035323;28;20080;-28
2021/12/13 11:46:31;;;;;;;3.05;2.22;;;;;;;13.17;37.65;97483.97;5035145;28;20033;-28
2021/12/13 11:49:07;;;;;;;2.55;1.77;;;;;;;13.20;37.50;97483.91;5035500;28;20021;-28
2021/12/13 11:51:57;;;;;;;3.13;1.77;;;;;;;13.24;37.78;97473.69;5035231;28;20067;-28
2021/12/13 11:54:38;;;;;;;2.00;1.48;;;;;;;13.26;37.60;97468.59;5035503;28;20383;-28
2021/12/13 11:57:48;;;;;;;2.35;1.55;;;;;;;13.23;37.92;97457.78;5035415;28;20030;-28
2021/12/13 12:00:35;;;;;;;2.88;1.70;;;;;;;13.27;37.57;97459.25;5034985;28;20044;-28
2021/12/13 12:03:49;;;;;;;3.08;2.00;;;;;;;13.29;37.60;97465.06;5033855;28;20031;-28
2021/12/13 12:06:33;;;;;;;2.60;1.58;;;;;;;13.25;37.61;97464.34;5034919;28;20508;-28
2021/12/13 12:09:22;;;;;;;2.72;2.00;;;;;;;13.30;37.62;97466.59;5034938;28;20427;-28
2021/12/13 12:12:27;;;;;;;3.13;1.70;;;;;;;13.28;37.99;97460.03;5034710;28;20028;-28
2021/12/13 12:15:01;;;;;;;2.00;1.50;;;;;;;13.24;37.59;97462.81;5035117;28;20037;-28
2021/12/13 12:17:31;;;;;;;2.67;1.77;;;;;;;13.28;37.93;97463.50;5034680;28;20083;-28
2021/12/13 12:19:57;;;;;;;2.33;1.70;;;;;;;13.22;37.67;97451.59;5035311;28;20030;-28
2021/12/13 12:22:31;;;;;;;3.15;1.65;;;;;;;13.31;37.67;97451.00;5034387;28;20029;-28